Time;durP1;ratioP1;P1;durP2;ratioP2;P2;SDS_P1;SDS_P2;PMS_P1;PMS_P2;Temp;Humidity;BMP_temperature;BMP_pressure;BME280_temperature;BME280_humidity;BME280_pressure;Samples;Min_cycle;Max_cycle;Signal;HPM_P1;HPM_P2
2021/07/02 00:02:03;;;;;;;42.33;23.08;;;16.40;99.90;;;;;;4920470;29;20193;-96
2021/07/02 00:04:29;;;;;;;51.55;23.33;;;16.40;99.90;;;;;;4920615;29;20181;-96
2021/07/02 00:06:55;;;;;;;38.20;21.17;;;16.40;99.90;;;;;;4920493;29;20190;-95
2021/07/02 00:09:21;;;;;;;38.55;21.75;;;16.40;99.90;;;;;;4920252;29;20185;-95
2021/07/02 00:11:46;;;;;;;37.63;22.83;;;16.30;99.90;;;;;;4920351;29;20221;-96
2021/07/02 00:14:12;;;;;;;45.45;21.92;;;16.30;99.90;;;;;;4920435;29;20185;-95
2021/07/02 00:16:39;;;;;;;39.78;23.65;;;16.30;99.90;;;;;;4919845;29;20214;-94
2021/07/02 00:19:08;;;;;;;47.40;23.00;;;16.30;99.90;;;;;;4920072;29;20226;-95
2021/07/02 00:21:34;;;;;;;38.05;22.52;;;16.30;99.90;;;;;;4919876;29;20186;-96
2021/07/02 00:24:00;;;;;;;48.65;23.90;;;16.30;99.90;;;;;;4919817;29;20183;-95
2021/07/02 00:26:25;;;;;;;54.55;24.52;;;16.30;99.90;;;;;;4920493;29;20179;-96
2021/07/02 00:28:51;;;;;;;43.28;24.35;;;16.30;99.90;;;;;;4919698;29;20186;-95
2021/07/02 00:31:18;;;;;;;42.95;23.23;;;16.30;99.90;;;;;;4919448;29;20214;-96
2021/07/02 00:33:45;;;;;;;50.38;24.35;;;16.30;99.90;;;;;;4919772;29;20183;-96
2021/07/02 00:36:10;;;;;;;45.05;23.60;;;16.30;99.90;;;;;;4920340;29;20217;-96
2021/07/02 00:38:36;;;;;;;37.55;23.02;;;16.30;99.90;;;;;;4919577;29;20175;-95
2021/07/02 00:41:03;;;;;;;50.10;24.17;;;16.30;99.90;;;;;;4920349;29;20175;-96
2021/07/02 00:43:29;;;;;;;46.55;24.80;;;16.30;99.90;;;;;;4919541;29;20318;-96
2021/07/02 00:45:54;;;;;;;40.08;22.85;;;16.30;99.90;;;;;;4919731;29;20277;-96
2021/07/02 00:48:20;;;;;;;45.60;23.67;;;16.30;99.90;;;;;;4919862;29;20229;-96
2021/07/02 00:50:48;;;;;;;42.58;23.42;;;16.30;99.90;;;;;;4919470;29;20218;-95
2021/07/02 00:53:14;;;;;;;50.90;24.75;;;16.30;99.90;;;;;;4919773;29;20524;-93
2021/07/02 00:55:42;;;;;;;47.17;23.58;;;16.30;99.90;;;;;;4919706;29;20322;-94
2021/07/02 00:58:09;;;;;;;55.25;23.45;;;16.40;99.90;;;;;;4919491;29;20186;-94
2021/07/02 01:00:35;;;;;;;39.67;23.23;;;16.40;99.90;;;;;;4919917;29;20262;-96
2021/07/02 01:03:00;;;;;;;48.70;24.08;;;16.30;99.90;;;;;;4919544;29;20214;-96
2021/07/02 01:05:26;;;;;;;51.35;23.38;;;16.30;99.90;;;;;;4919618;29;20194;-96
2021/07/02 01:07:52;;;;;;;42.30;22.38;;;16.30;99.90;;;;;;4919165;29;20193;-95
2021/07/02 01:10:19;;;;;;;51.45;24.05;;;16.30;99.90;;;;;;4919564;29;20210;-96
2021/07/02 01:12:47;;;;;;;56.88;24.20;;;16.30;99.90;;;;;;4919437;29;20277;-96
2021/07/02 01:15:27;;;;;;;45.90;24.05;;;16.30;99.90;;;;;;4919543;29;20626;-95
2021/07/02 01:17:53;;;;;;;48.97;23.08;;;16.30;99.90;;;;;;4919068;29;20190;-94
2021/07/02 01:20:20;;;;;;;42.55;22.67;;;16.30;99.90;;;;;;4919297;29;20230;-95
2021/07/02 01:22:46;;;;;;;43.13;22.77;;;16.30;99.90;;;;;;4919299;29;20305;-96
2021/07/02 01:25:12;;;;;;;48.67;22.73;;;16.30;99.90;;;;;;4919089;29;20190;-95
2021/07/02 01:27:39;;;;;;;46.03;22.00;;;16.30;99.90;;;;;;4918751;29;20175;-96
2021/07/02 01:30:08;;;;;;;53.15;23.77;;;16.20;99.90;;;;;;4918927;29;20234;-95
2021/07/02 01:32:34;;;;;;;42.83;22.02;;;16.30;99.90;;;;;;4918686;29;20179;-94
2021/07/02 01:35:00;;;;;;;43.30;22.77;;;16.30;99.90;;;;;;4918975;29;20179;-95
2021/07/02 01:37:26;;;;;;;53.17;23.55;;;16.30;99.90;;;;;;4918740;29;20269;-95
2021/07/02 01:39:52;;;;;;;47.10;22.58;;;16.30;99.90;;;;;;4918569;29;20187;-95
2021/07/02 01:42:17;;;;;;;48.88;21.63;;;16.20;99.90;;;;;;4919066;29;20182;-94
2021/07/02 01:44:43;;;;;;;43.83;23.10;;;16.30;99.90;;;;;;4918570;29;20560;-94
2021/07/02 01:47:09;;;;;;;56.33;22.35;;;16.30;99.90;;;;;;4918851;29;20182;-96
2021/07/02 01:49:34;;;;;;;49.50;22.15;;;16.20;99.90;;;;;;4918672;29;20202;-94
2021/07/02 01:52:00;;;;;;;48.47;23.67;;;16.30;99.90;;;;;;4918517;29;20218;-94
2021/07/02 01:54:26;;;;;;;50.85;23.90;;;16.30;99.90;;;;;;4918631;29;20230;-96
2021/07/02 01:56:53;;;;;;;49.40;23.33;;;16.30;99.90;;;;;;4918478;29;20249;-95
2021/07/02 01:59:19;;;;;;;47.38;22.27;;;16.30;99.90;;;;;;4918507;29;20205;-96
2021/07/02 02:01:47;;;;;;;52.13;22.95;;;16.30;99.90;;;;;;4918487;29;20178;-96
2021/07/02 02:04:13;;;;;;;46.95;21.55;;;16.20;99.90;;;;;;4918670;29;20183;-96
2021/07/02 02:06:39;;;;;;;49.35;22.83;;;16.20;99.90;;;;;;4918259;29;20186;-95
2021/07/02 02:09:06;;;;;;;51.75;23.00;;;16.20;99.90;;;;;;4918535;29;20238;-95
2021/07/02 02:11:33;;;;;;;44.05;22.17;;;16.20;99.90;;;;;;4918253;29;20214;-95
2021/07/02 02:13:59;;;;;;;47.55;22.15;;;16.30;99.90;;;;;;4918238;29;20182;-96
2021/07/02 02:16:25;;;;;;;45.97;21.42;;;16.30;99.90;;;;;;4917992;29;20190;-95
2021/07/02 02:18:51;;;;;;;47.47;21.80;;;16.30;99.90;;;;;;4918230;29;20293;-96
2021/07/02 02:21:17;;;;;;;46.78;22.52;;;16.30;99.90;;;;;;4918393;29;20622;-95
2021/07/02 02:23:43;;;;;;;54.00;22.60;;;16.30;99.90;;;;;;4917545;29;20178;-94
2021/07/02 02:26:08;;;;;;;45.05;21.85;;;16.30;99.90;;;;;;4918305;29;20190;-96
2021/07/02 02:28:35;;;;;;;44.53;22.08;;;16.20;99.90;;;;;;4918498;29;20242;-95
2021/07/02 02:33:36;;;;;;;41.08;21.40;;;16.20;99.90;;;;;;5055640;23;20300;-91
2021/07/02 02:36:03;;;;;;;45.22;23.08;;;16.20;99.90;;;;;;4902282;29;20523;-90
2021/07/02 02:38:29;;;;;;;46.53;21.60;;;16.20;99.90;;;;;;4901345;29;20216;-91
2021/07/02 02:40:55;;;;;;;51.75;22.52;;;16.20;99.90;;;;;;4883173;29;20250;-95
2021/07/02 02:43:20;;;;;;;46.67;22.67;;;16.20;99.90;;;;;;4883032;29;20183;-95
2021/07/02 02:45:46;;;;;;;44.85;21.92;;;16.20;99.90;;;;;;4884309;29;20187;-96
2021/07/02 02:48:11;;;;;;;43.80;20.70;;;16.20;99.90;;;;;;4899205;29;20204;-91
2021/07/02 02:50:37;;;;;;;45.05;20.92;;;16.20;99.90;;;;;;4884403;29;20249;-92
2021/07/02 02:53:03;;;;;;;46.10;21.95;;;16.20;99.90;;;;;;4885857;29;20183;-92
2021/07/02 02:55:30;;;;;;;45.30;21.00;;;16.20;99.90;;;;;;4883677;29;20183;-91
2021/07/02 02:57:56;;;;;;;43.38;20.88;;;16.20;99.90;;;;;;4883885;29;20183;-90
2021/07/02 03:00:21;;;;;;;43.35;20.13;;;16.20;99.90;;;;;;4884644;29;20194;-92
2021/07/02 03:02:47;;;;;;;52.40;21.70;;;16.20;99.90;;;;;;4903106;29;20247;-90
2021/07/02 03:05:13;;;;;;;38.10;20.38;;;16.20;99.90;;;;;;4888634;29;20542;-91
2021/07/02 03:07:41;;;;;;;38.65;20.77;;;16.20;99.90;;;;;;4886952;29;20179;-91
2021/07/02 03:10:07;;;;;;;41.20;20.63;;;16.20;99.90;;;;;;4886994;29;20203;-91
2021/07/02 03:12:33;;;;;;;46.72;21.73;;;16.20;99.90;;;;;;4887874;29;20219;-90
2021/07/02 03:14:59;;;;;;;37.15;20.40;;;16.20;99.90;;;;;;4890076;29;20189;-90
2021/07/02 03:17:24;;;;;;;43.55;21.00;;;16.20;99.90;;;;;;4904423;29;20190;-91
2021/07/02 03:19:50;;;;;;;48.85;21.52;;;16.20;99.90;;;;;;4893309;29;20251;-90
2021/07/02 03:22:16;;;;;;;47.65;21.50;;;16.30;99.90;;;;;;4888637;29;20187;-91
2021/07/02 03:24:42;;;;;;;41.67;20.20;;;16.20;99.90;;;;;;4886621;29;20179;-95
2021/07/02 03:27:08;;;;;;;45.05;20.55;;;16.30;99.90;;;;;;4889337;29;20183;-96
2021/07/02 03:29:36;;;;;;;39.95;20.88;;;16.30;99.90;;;;;;4886650;29;20273;-92
2021/07/02 03:32:03;;;;;;;44.97;22.45;;;16.30;99.90;;;;;;4904480;29;20330;-91
2021/07/02 03:34:29;;;;;;;50.58;22.58;;;16.30;99.90;;;;;;4887939;29;20266;-92
2021/07/02 03:36:55;;;;;;;43.03;20.73;;;16.30;99.90;;;;;;4887112;29;20230;-90
2021/07/02 03:39:20;;;;;;;50.08;22.17;;;16.30;99.90;;;;;;4886346;29;20183;-90
2021/07/02 03:41:46;;;;;;;45.55;20.80;;;16.30;99.90;;;;;;4904905;29;20629;-91
2021/07/02 03:44:11;;;;;;;41.85;20.75;;;16.30;99.90;;;;;;4886706;29;20232;-91
2021/07/02 03:46:37;;;;;;;47.97;20.40;;;16.30;99.90;;;;;;4903389;29;20172;-91
2021/07/02 03:49:03;;;;;;;43.38;22.13;;;16.30;99.90;;;;;;4886539;29;20631;-91
2021/07/02 03:51:29;;;;;;;47.35;19.98;;;16.30;99.90;;;;;;4886220;29;20222;-92
2021/07/02 03:53:54;;;;;;;46.65;21.65;;;16.30;99.90;;;;;;4887041;29;20247;-90
2021/07/02 03:56:20;;;;;;;43.53;19.67;;;16.30;99.90;;;;;;4887031;29;20670;-91
2021/07/02 03:58:46;;;;;;;49.10;20.15;;;16.30;99.90;;;;;;4887063;29;20214;-91
2021/07/02 04:01:12;;;;;;;46.50;21.45;;;16.30;99.90;;;;;;4886754;29;20187;-91
2021/07/02 04:03:38;;;;;;;45.97;21.85;;;16.30;99.90;;;;;;4886847;29;20272;-90
2021/07/02 04:06:04;;;;;;;48.22;22.30;;;16.30;99.90;;;;;;4886446;29;20187;-95
2021/07/02 04:08:30;;;;;;;44.53;21.60;;;16.30;99.90;;;;;;4885926;29;20293;-91
2021/07/02 04:10:56;;;;;;;44.28;22.25;;;16.30;99.90;;;;;;4886236;29;20211;-91
2021/07/02 04:13:22;;;;;;;50.40;22.45;;;16.30;99.90;;;;;;4884704;29;20179;-91
2021/07/02 04:15:49;;;;;;;52.28;22.42;;;16.30;99.90;;;;;;4887058;29;20607;-91
2021/07/02 04:18:15;;;;;;;53.25;22.95;;;16.40;99.90;;;;;;4886509;29;20191;-91
2021/07/02 04:20:40;;;;;;;54.35;22.63;;;16.30;99.90;;;;;;4886721;29;20188;-91
2021/07/02 04:23:06;;;;;;;52.67;22.70;;;16.30;99.90;;;;;;4901379;29;20194;-92
2021/07/02 04:25:32;;;;;;;51.78;23.08;;;16.30;99.90;;;;;;4885943;29;20259;-91
2021/07/02 04:27:58;;;;;;;49.08;23.25;;;16.30;99.90;;;;;;4885620;29;20217;-92
2021/07/02 04:30:24;;;;;;;46.05;21.95;;;16.30;99.90;;;;;;4885830;29;20239;-91
2021/07/02 04:32:50;;;;;;;67.20;25.25;;;16.30;99.90;;;;;;4892596;29;20720;-91
2021/07/02 04:35:16;;;;;;;52.55;24.02;;;16.30;99.90;;;;;;4901132;29;20195;-92
2021/07/02 04:37:42;;;;;;;48.38;21.13;;;16.30;99.90;;;;;;4902228;29;20599;-91
2021/07/02 04:40:09;;;;;;;53.97;22.00;;;16.30;99.90;;;;;;4900939;29;20183;-92
2021/07/02 04:42:36;;;;;;;59.15;22.63;;;16.30;99.90;;;;;;4901052;29;20610;-91
2021/07/02 04:45:02;;;;;;;51.88;23.00;;;16.30;99.90;;;;;;4901756;29;20599;-96
2021/07/02 04:47:28;;;;;;;45.53;21.20;;;16.30;99.90;;;;;;4900881;29;20222;-96
2021/07/02 04:49:54;;;;;;;49.90;23.20;;;16.30;99.90;;;;;;4900920;29;20239;-92
2021/07/02 04:52:19;;;;;;;43.17;23.05;;;16.20;99.90;;;;;;4900747;29;20239;-91
2021/07/02 04:54:45;;;;;;;51.95;23.50;;;16.20;99.90;;;;;;4900251;29;20190;-92
2021/07/02 04:57:11;;;;;;;45.45;22.52;;;16.20;99.90;;;;;;4900879;29;20645;-92
2021/07/02 04:59:38;;;;;;;48.95;23.33;;;16.20;99.90;;;;;;4900917;29;20213;-92
2021/07/02 05:02:06;;;;;;;53.05;23.65;;;16.20;99.90;;;;;;4901316;29;20183;-93
2021/07/02 05:04:32;;;;;;;53.25;25.35;;;16.20;99.90;;;;;;4902722;29;20190;-92
2021/07/02 05:06:59;;;;;;;59.22;26.90;;;16.20;99.90;;;;;;4902673;29;20265;-92
2021/07/02 05:09:25;;;;;;;49.30;23.60;;;16.20;99.90;;;;;;4901720;29;20199;-93
2021/07/02 05:11:51;;;;;;;61.50;26.20;;;16.20;99.90;;;;;;4900552;29;20225;-93
2021/07/02 05:14:17;;;;;;;61.72;25.70;;;16.20;99.90;;;;;;4901157;29;20179;-92
2021/07/02 05:16:43;;;;;;;54.72;24.48;;;16.20;99.90;;;;;;4901951;29;20175;-92
2021/07/02 05:19:09;;;;;;;46.72;23.65;;;16.20;99.90;;;;;;4903788;29;20184;-92
2021/07/02 05:21:34;;;;;;;41.83;22.10;;;16.20;99.90;;;;;;4901692;29;20180;-93
2021/07/02 05:24:02;;;;;;;39.03;20.83;;;16.20;99.90;;;;;;4904329;29;20175;-96
2021/07/02 05:26:28;;;;;;;36.53;20.55;;;16.20;99.90;;;;;;4903155;29;20214;-96
2021/07/02 05:28:54;;;;;;;39.08;18.77;;;16.10;99.90;;;;;;4902058;29;20184;-96
2021/07/02 05:31:20;;;;;;;37.03;18.80;;;16.10;99.90;;;;;;4900696;29;20223;-92
2021/07/02 05:33:46;;;;;;;33.78;18.10;;;16.10;99.90;;;;;;4901143;29;20231;-93
2021/07/02 05:36:13;;;;;;;32.20;17.35;;;16.10;99.90;;;;;;4901798;29;20179;-91
2021/07/02 05:38:39;;;;;;;31.42;18.52;;;16.10;99.90;;;;;;4903410;29;20183;-92
2021/07/02 05:41:05;;;;;;;31.48;18.02;;;16.10;99.90;;;;;;4902702;29;20191;-92
2021/07/02 05:43:30;;;;;;;31.17;17.65;;;16.10;99.90;;;;;;4901368;29;20199;-92
2021/07/02 05:45:56;;;;;;;34.15;19.20;;;16.10;99.90;;;;;;4901962;29;20183;-92
2021/07/02 05:48:23;;;;;;;35.38;19.33;;;16.10;99.90;;;;;;4901001;29;20179;-92
2021/07/02 05:50:49;;;;;;;35.80;19.65;;;16.10;99.90;;;;;;4902832;29;20285;-92
2021/07/02 05:53:16;;;;;;;38.88;20.33;;;16.10;99.90;;;;;;4901751;29;20183;-94
2021/07/02 05:55:44;;;;;;;35.75;20.02;;;16.10;99.90;;;;;;4902729;29;20209;-92
2021/07/02 05:58:09;;;;;;;42.30;22.27;;;16.10;99.90;;;;;;4902189;29;20215;-92
2021/07/02 06:00:35;;;;;;;38.72;21.05;;;16.10;99.90;;;;;;4903048;29;20187;-95
2021/07/02 06:03:04;;;;;;;36.88;20.33;;;16.10;99.90;;;;;;4904172;29;20192;-96
2021/07/02 06:05:30;;;;;;;34.42;20.35;;;16.10;99.90;;;;;;4903688;29;20290;-96
2021/07/02 06:07:56;;;;;;;41.28;22.33;;;16.10;99.90;;;;;;4899735;29;20238;-96
2021/07/02 06:10:24;;;;;;;41.03;22.00;;;16.10;99.90;;;;;;4900144;29;20226;-96
2021/07/02 06:12:50;;;;;;;39.38;20.65;;;16.10;99.90;;;;;;4899978;29;20179;-96
2021/07/02 06:15:17;;;;;;;45.55;23.25;;;16.10;99.90;;;;;;4899235;29;20314;-90
2021/07/02 06:17:45;;;;;;;44.65;23.20;;;16.10;99.90;;;;;;4899237;29;20175;-90
2021/07/02 06:20:12;;;;;;;42.97;23.33;;;16.10;99.90;;;;;;4899085;29;20243;-92
2021/07/02 06:22:38;;;;;;;44.65;22.10;;;16.10;99.90;;;;;;4899294;29;20183;-92
2021/07/02 06:25:06;;;;;;;46.97;21.35;;;16.20;99.90;;;;;;4900020;29;20226;-93
2021/07/02 06:27:32;;;;;;;43.30;22.85;;;16.10;99.90;;;;;;4899907;29;20187;-92
2021/07/02 06:29:58;;;;;;;48.97;22.92;;;16.20;99.90;;;;;;4899216;29;20183;-92
2021/07/02 06:32:23;;;;;;;51.63;24.08;;;16.20;99.90;;;;;;4901738;29;20239;-96
2021/07/02 06:34:53;;;;;;;45.97;22.90;;;16.20;99.90;;;;;;4911316;29;20179;-93
2021/07/02 06:37:19;;;;;;;41.92;21.77;;;16.20;99.90;;;;;;4925088;29;20183;-93
2021/07/02 06:39:44;;;;;;;41.47;21.88;;;16.30;99.90;;;;;;4945299;29;20206;-96
2021/07/02 06:42:12;;;;;;;42.63;22.23;;;16.30;99.90;;;;;;4939274;29;20182;-96
2021/07/02 06:44:37;;;;;;;41.30;21.15;;;16.30;99.90;;;;;;4942142;29;20258;-95
2021/07/02 06:47:08;;;;;;;43.95;22.25;;;16.30;99.90;;;;;;4946536;29;20178;-96
2021/07/02 06:49:34;;;;;;;45.63;22.48;;;16.40;99.90;;;;;;4947657;29;20178;-96
2021/07/02 06:52:09;;;;;;;42.72;22.27;;;16.40;99.90;;;;;;4939804;29;20301;-94
2021/07/02 06:54:35;;;;;;;38.70;21.73;;;16.50;99.90;;;;;;4943296;29;20190;-96
2021/07/02 06:57:03;;;;;;;39.78;21.90;;;16.50;99.90;;;;;;4925206;29;20504;-92
2021/07/02 06:59:31;;;;;;;37.92;19.75;;;16.50;99.90;;;;;;4942085;29;20178;-92
2021/07/02 07:02:00;;;;;;;38.15;20.45;;;16.50;99.90;;;;;;4940759;29;20183;-92
2021/07/02 07:04:34;;;;;;;36.45;19.40;;;16.50;99.90;;;;;;4938392;29;20238;-95
2021/07/02 07:07:00;;;;;;;35.22;20.73;;;16.50;99.90;;;;;;4934846;29;20167;-94
2021/07/02 07:09:26;;;;;;;39.65;21.20;;;16.50;99.90;;;;;;4933357;29;20190;-94
2021/07/02 07:11:52;;;;;;;33.13;19.08;;;16.60;99.90;;;;;;4933371;29;20211;-93
2021/07/02 07:14:17;;;;;;;36.17;19.88;;;16.60;99.90;;;;;;4932884;29;20182;-94
2021/07/02 07:16:43;;;;;;;36.58;19.88;;;16.60;99.90;;;;;;4933063;29;20499;-93
2021/07/02 07:19:09;;;;;;;37.17;18.95;;;16.70;99.90;;;;;;4933144;29;20178;-93
2021/07/02 07:21:35;;;;;;;30.73;18.48;;;16.70;99.90;;;;;;4933171;29;20183;-93
2021/07/02 07:24:01;;;;;;;30.20;18.30;;;16.70;99.90;;;;;;4933137;29;20186;-93
2021/07/02 07:26:27;;;;;;;32.67;18.98;;;16.80;99.90;;;;;;4932411;29;20234;-93
2021/07/02 07:28:53;;;;;;;34.05;18.15;;;16.80;99.90;;;;;;4932617;29;20175;-92
2021/07/02 07:31:19;;;;;;;28.55;17.38;;;16.80;99.90;;;;;;4932493;29;20217;-93
2021/07/02 07:33:47;;;;;;;32.40;18.98;;;16.80;99.90;;;;;;4931949;29;20677;-93
2021/07/02 07:36:15;;;;;;;29.35;17.38;;;16.80;99.90;;;;;;4933233;29;20297;-92
2021/07/02 07:38:42;;;;;;;35.60;17.67;;;16.80;99.90;;;;;;4917173;29;20531;-93
2021/07/02 07:41:09;;;;;;;27.17;18.05;;;16.90;99.90;;;;;;4932617;29;20183;-93
2021/07/02 07:43:35;;;;;;;34.17;17.90;;;16.80;99.90;;;;;;4932464;29;20266;-92
2021/07/02 07:46:02;;;;;;;28.35;17.83;;;16.80;99.90;;;;;;4931795;29;20281;-93
2021/07/02 07:48:28;;;;;;;30.98;17.85;;;16.80;99.90;;;;;;4935984;29;20179;-94
2021/07/02 07:51:02;;;;;;;32.10;17.80;;;16.80;99.90;;;;;;4936462;29;20241;-96
2021/07/02 07:53:28;;;;;;;29.85;18.63;;;16.70;99.90;;;;;;4929468;29;20185;-95
2021/07/02 07:55:55;;;;;;;36.17;18.05;;;16.70;99.90;;;;;;4935383;29;20182;-94
2021/07/02 07:58:21;;;;;;;32.35;18.27;;;16.70;99.90;;;;;;4936092;29;20199;-95
2021/07/02 08:00:47;;;;;;;30.98;17.85;;;16.70;99.90;;;;;;4936543;29;20214;-94
2021/07/02 08:03:13;;;;;;;36.15;18.98;;;16.70;99.90;;;;;;4936117;29;20211;-95
2021/07/02 08:05:39;;;;;;;37.22;20.88;;;16.80;99.90;;;;;;4936322;29;20187;-96
2021/07/02 08:08:05;;;;;;;38.35;20.50;;;16.80;99.90;;;;;;4937680;29;20175;-96
2021/07/02 08:10:31;;;;;;;44.60;21.52;;;16.80;99.90;;;;;;4937852;29;20218;-96
2021/07/02 08:12:56;;;;;;;38.72;22.17;;;16.70;99.90;;;;;;4937429;29;20685;-96
2021/07/02 08:15:22;;;;;;;40.05;20.88;;;16.70;99.90;;;;;;4937938;29;20266;-96
2021/07/02 08:17:48;;;;;;;39.45;20.25;;;16.70;99.90;;;;;;4920895;29;20200;-96
2021/07/02 08:20:14;;;;;;;38.78;21.83;;;16.60;99.90;;;;;;4938180;29;20186;-96
2021/07/02 08:22:40;;;;;;;38.95;20.58;;;16.50;99.90;;;;;;4936195;29;20174;-96
2021/07/02 08:25:07;;;;;;;38.58;21.45;;;16.60;99.90;;;;;;4935869;29;20273;-96
2021/07/02 08:30:22;;;;;;;41.35;21.60;;;16.60;99.90;;;;;;4903528;29;20215;-96
2021/07/02 08:32:48;;;;;;;45.25;22.60;;;16.60;99.90;;;;;;4936234;29;20401;-95
2021/07/02 08:35:15;;;;;;;54.25;24.98;;;16.50;99.90;;;;;;4935893;29;20190;-96
2021/07/02 08:37:41;;;;;;;50.53;23.58;;;16.50;99.90;;;;;;4935758;29;20183;-95
2021/07/02 08:40:07;;;;;;;38.13;21.27;;;16.60;99.90;;;;;;4935433;29;20242;-93
2021/07/02 08:42:33;;;;;;;46.45;22.55;;;16.60;99.90;;;;;;4935259;29;20278;-93
2021/07/02 08:44:58;;;;;;;41.78;21.17;;;16.60;99.90;;;;;;4935053;29;20219;-93
2021/07/02 08:47:24;;;;;;;42.78;20.42;;;16.60;99.90;;;;;;4935577;29;20186;-94
2021/07/02 08:49:50;;;;;;;44.88;21.25;;;16.60;99.90;;;;;;4935770;29;20328;-96
2021/07/02 08:52:16;;;;;;;48.65;20.98;;;16.60;99.90;;;;;;4935505;29;20218;-94
2021/07/02 08:54:42;;;;;;;42.20;20.95;;;16.70;99.90;;;;;;4936520;29;20182;-96
2021/07/02 08:57:08;;;;;;;44.92;21.40;;;16.80;99.90;;;;;;4916891;29;20192;-94
2021/07/02 08:59:33;;;;;;;45.85;20.65;;;16.80;99.90;;;;;;4934663;29;20563;-94
2021/07/02 09:01:59;;;;;;;40.03;20.65;;;16.70;99.90;;;;;;4935199;29;20216;-95
2021/07/02 09:04:29;;;;;;;37.45;20.27;;;16.70;99.90;;;;;;4935830;29;20278;-94
2021/07/02 09:07:09;;;;;;;39.85;20.63;;;16.60;99.90;;;;;;4938848;29;20576;-96
2021/07/02 09:09:50;;;;;;;36.28;18.70;;;16.60;99.90;;;;;;4921595;29;20158;-96
2021/07/02 09:12:18;;;;;;;35.65;19.52;;;16.70;99.90;;;;;;4937980;29;20214;-96
2021/07/02 09:15:15;;;;;;;33.92;18.52;;;16.60;99.90;;;;;;4936364;29;20230;-94
2021/07/02 09:17:51;;;;;;;34.50;18.65;;;16.70;99.90;;;;;;4926974;29;20218;-96
2021/07/02 09:20:27;;;;;;;29.02;16.88;;;16.70;99.90;;;;;;4921441;29;20185;-96
2021/07/02 09:22:59;;;;;;;27.80;16.23;;;16.80;99.90;;;;;;4919266;29;20610;-95
2021/07/02 09:25:41;;;;;;;34.67;17.08;;;16.90;99.90;;;;;;4919796;29;20179;-95
2021/07/02 09:28:11;;;;;;;27.45;15.88;;;17.00;99.90;;;;;;4925249;29;20154;-95
2021/07/02 09:30:39;;;;;;;27.60;15.27;;;17.10;99.90;;;;;;4923035;29;20253;-96
2021/07/02 09:33:16;;;;;;;23.73;14.00;;;17.10;99.90;;;;;;4924508;29;20761;-96
2021/07/02 09:35:53;;;;;;;23.60;14.45;;;17.10;99.90;;;;;;4937371;29;20190;-96
2021/07/02 09:38:31;;;;;;;21.52;14.25;;;17.10;99.90;;;;;;4920559;29;20257;-96
2021/07/02 09:40:56;;;;;;;25.75;14.05;;;17.00;99.90;;;;;;4920577;29;20202;-96
2021/07/02 09:43:29;;;;;;;22.52;14.77;;;17.00;99.90;;;;;;4937092;29;20657;-96
2021/07/02 09:46:02;;;;;;;22.98;13.75;;;17.00;99.90;;;;;;4940854;29;20182;-96
2021/07/02 09:48:31;;;;;;;27.20;13.00;;;17.00;99.90;;;;;;4938228;29;20657;-96
2021/07/02 09:51:05;;;;;;;32.47;13.60;;;17.10;99.90;;;;;;4923897;29;20588;-96
2021/07/02 09:53:36;;;;;;;23.25;14.25;;;17.30;99.90;;;;;;4935963;29;20229;-96
2021/07/02 09:56:16;;;;;;;25.60;13.10;;;17.40;99.90;;;;;;4935622;29;20175;-96
2021/07/02 09:58:42;;;;;;;18.88;11.45;;;17.50;99.90;;;;;;4937259;29;20170;-96
2021/07/02 10:01:10;;;;;;;16.15;11.05;;;17.50;99.90;;;;;;4935083;29;20189;-96
2021/07/02 10:03:40;;;;;;;17.10;11.43;;;17.60;99.90;;;;;;4932527;29;20183;-96
2021/07/02 10:06:18;;;;;;;17.27;10.98;;;17.60;99.90;;;;;;4945480;29;20182;-95
2021/07/02 10:08:44;;;;;;;14.93;10.13;;;17.60;99.90;;;;;;4948857;29;20206;-95
2021/07/02 10:11:12;;;;;;;16.33;10.07;;;17.60;99.90;;;;;;4947678;29;20206;-96
2021/07/02 10:13:57;;;;;;;17.45;10.07;;;17.60;99.90;;;;;;4951378;29;20167;-93
2021/07/02 10:16:24;;;;;;;15.32;9.95;;;17.60;99.90;;;;;;4944089;29;20183;-96
2021/07/02 10:18:58;;;;;;;19.23;9.20;;;17.50;99.90;;;;;;4941358;29;20178;-94
2021/07/02 10:21:28;;;;;;;15.52;9.07;;;17.50;99.90;;;;;;4933806;29;20508;-94
2021/07/02 10:23:56;;;;;;;16.58;8.98;;;17.60;99.90;;;;;;4935127;29;20170;-93
2021/07/02 10:26:25;;;;;;;14.90;8.90;;;17.70;99.90;;;;;;4933840;29;20174;-95
2021/07/02 10:28:52;;;;;;;15.45;8.25;;;17.90;99.90;;;;;;4920097;29;20179;-95
2021/07/02 10:31:18;;;;;;;15.50;9.15;;;18.00;99.90;;;;;;4936054;29;20190;-96
2021/07/02 10:33:54;;;;;;;13.70;8.20;;;18.10;99.90;;;;;;4937681;29;20227;-96
2021/07/02 10:36:31;;;;;;;14.18;8.70;;;18.20;99.90;;;;;;4938029;29;20681;-96
2021/07/02 10:38:57;;;;;;;15.23;9.60;;;18.20;99.90;;;;;;4924989;29;20186;-95
2021/07/02 10:41:26;;;;;;;12.77;9.38;;;18.30;99.90;;;;;;4938910;29;20250;-96
2021/07/02 10:44:12;;;;;;;15.93;10.32;;;18.30;99.90;;;;;;4934594;29;20179;-95
2021/07/02 10:47:03;;;;;;;17.58;9.52;;;18.40;99.90;;;;;;4923390;29;20170;-96
2021/07/02 10:49:39;;;;;;;12.45;8.63;;;18.50;99.90;;;;;;4919752;29;20178;-95
2021/07/02 10:52:25;;;;;;;13.32;8.27;;;18.50;99.90;;;;;;4934101;29;20214;-91
2021/07/02 10:54:52;;;;;;;15.57;9.00;;;18.50;99.90;;;;;;4933486;29;20281;-94
2021/07/02 10:57:21;;;;;;;14.10;8.88;;;18.40;99.90;;;;;;4933318;29;20183;-93
2021/07/02 10:59:50;;;;;;;15.98;8.73;;;18.30;99.90;;;;;;4932932;29;20182;-92
2021/07/02 11:02:20;;;;;;;16.63;9.40;;;18.30;99.90;;;;;;4917449;29;20265;-91
2021/07/02 11:04:52;;;;;;;16.85;9.85;;;18.30;99.90;;;;;;4916781;29;20183;-91
2021/07/02 11:07:22;;;;;;;13.80;9.10;;;18.40;99.90;;;;;;4935438;29;20189;-92
2021/07/02 11:09:52;;;;;;;13.98;8.65;;;18.70;99.90;;;;;;4917449;29;20187;-92
2021/07/02 11:12:21;;;;;;;14.80;9.27;;;19.10;99.90;;;;;;4917623;29;20198;-92
2021/07/02 11:15:18;;;;;;;13.68;8.20;;;19.60;99.90;;;;;;4933044;29;20190;-93
2021/07/02 11:17:47;;;;;;;13.15;7.95;;;19.80;99.90;;;;;;4918531;29;20191;-93
2021/07/02 11:20:21;;;;;;;15.30;7.97;;;19.80;99.90;;;;;;4941194;29;20182;-92
2021/07/02 11:22:58;;;;;;;11.10;8.05;;;19.60;99.90;;;;;;4926536;29;20257;-91
2021/07/02 11:25:42;;;;;;;13.52;8.45;;;19.50;99.90;;;;;;4947387;28;20201;-92
2021/07/02 11:28:14;;;;;;;15.32;9.27;;;19.40;99.90;;;;;;4939339;29;20197;-96
2021/07/02 11:30:42;;;;;;;13.80;9.10;;;19.30;99.90;;;;;;4941811;29;20191;-92
2021/07/02 11:33:11;;;;;;;14.02;9.20;;;19.30;99.90;;;;;;4941320;29;20549;-92
2021/07/02 11:35:46;;;;;;;12.88;8.95;;;19.20;99.90;;;;;;4927798;29;20191;-92
2021/07/02 11:38:18;;;;;;;15.43;8.90;;;19.10;99.90;;;;;;4939825;29;20264;-92
2021/07/02 11:40:49;;;;;;;14.80;8.98;;;19.10;99.90;;;;;;4940590;29;20171;-93
2021/07/02 11:43:30;;;;;;;14.27;9.20;;;19.10;99.90;;;;;;4903837;29;20611;-91
2021/07/02 11:45:58;;;;;;;15.82;8.38;;;19.10;99.90;;;;;;4922472;29;20611;-94
2021/07/02 11:48:39;;;;;;;14.52;8.15;;;19.10;99.90;;;;;;4927861;29;20182;-92
2021/07/02 11:51:13;;;;;;;12.00;7.15;;;19.10;99.90;;;;;;4940098;29;20194;-92
2021/07/02 11:53:48;;;;;;;12.13;8.10;;;19.20;99.90;;;;;;4937926;29;20182;-96
2021/07/02 11:56:18;;;;;;;14.65;7.43;;;19.40;99.90;;;;;;4940656;29;20174;-92
2021/07/02 11:59:08;;;;;;;13.32;7.53;;;19.70;99.90;;;;;;4923320;29;20194;-92
2021/07/02 12:01:45;;;;;;;11.85;6.97;;;19.90;99.90;;;;;;4940281;29;20179;-91
2021/07/02 12:04:20;;;;;;;12.23;7.32;;;19.90;99.90;;;;;;4937310;29;20178;-93
2021/07/02 12:06:50;;;;;;;13.75;7.22;;;19.90;99.90;;;;;;4937950;29;20197;-93
2021/07/02 12:09:21;;;;;;;10.35;7.32;;;19.80;99.90;;;;;;4939527;29;20234;-91
2021/07/02 12:11:51;;;;;;;13.50;8.25;;;19.60;99.90;;;;;;4936462;29;20221;-91
2021/07/02 12:14:28;;;;;;;13.13;7.55;;;19.40;99.90;;;;;;4936476;29;20266;-92
2021/07/02 12:16:57;;;;;;;10.77;7.45;;;19.20;99.90;;;;;;4936528;29;20178;-92
2021/07/02 12:19:31;;;;;;;11.48;6.88;;;19.20;99.90;;;;;;4935548;29;20223;-93
2021/07/02 12:22:09;;;;;;;10.80;6.00;;;19.10;99.90;;;;;;4936572;29;20265;-93
2021/07/02 12:24:37;;;;;;;8.10;6.07;;;19.20;99.90;;;;;;4936247;29;20304;-91
2021/07/02 12:27:06;;;;;;;9.65;6.75;;;19.30;99.90;;;;;;4936355;29;20185;-92
2021/07/02 12:29:32;;;;;;;10.50;6.82;;;19.50;99.90;;;;;;4936775;29;20206;-94
2021/07/02 12:32:04;;;;;;;8.98;6.30;;;19.80;99.90;;;;;;4935598;29;20234;-94
2021/07/02 12:34:32;;;;;;;9.52;6.10;;;20.00;99.90;;;;;;4934803;29;20171;-93
2021/07/02 12:37:10;;;;;;;10.82;5.80;;;20.00;99.90;;;;;;4920877;29;20200;-92
2021/07/02 12:39:48;;;;;;;7.70;5.80;;;20.10;99.90;;;;;;4938839;29;20182;-93